createdAt,value
2019-03-29T00:02:04.769Z,21.23
2019-03-29T00:04:32.492Z,19.87
2019-03-29T00:07:00.111Z,18.03
2019-03-29T00:09:28.430Z,20.77
2019-03-29T00:11:57.013Z,18.97
2019-03-29T00:14:24.263Z,20.50
2019-03-29T00:16:51.967Z,21.20
2019-03-29T00:19:20.998Z,19.53
2019-03-29T00:21:48.540Z,22.27
2019-03-29T00:24:15.793Z,21.50
2019-03-29T00:26:43.094Z,19.70
2019-03-29T00:29:10.257Z,21.07
2019-03-29T00:31:37.573Z,20.83
2019-03-29T00:34:05.276Z,20.03
2019-03-29T00:36:32.536Z,20.23
2019-03-29T00:39:00.507Z,23.30
2019-03-29T00:41:27.909Z,22.77
2019-03-29T00:43:55.295Z,21.83
2019-03-29T00:46:22.555Z,22.23
2019-03-29T00:48:49.862Z,21.73
2019-03-29T00:51:17.125Z,23.13
2019-03-29T00:53:44.377Z,23.33
2019-03-29T00:56:12.974Z,23.73
2019-03-29T00:58:52.872Z,23.33
2019-03-29T01:01:20.267Z,22.90
2019-03-29T01:03:47.827Z,24.50
2019-03-29T01:06:15.337Z,23.53
2019-03-29T01:08:42.655Z,24.27
2019-03-29T01:11:10.386Z,24.43
2019-03-29T01:13:37.705Z,23.27
2019-03-29T01:16:05.316Z,27.07
2019-03-29T01:18:32.800Z,25.73
2019-03-29T01:21:00.462Z,26.93
2019-03-29T01:23:28.054Z,26.90
2019-03-29T01:25:55.302Z,25.77
2019-03-29T01:28:22.654Z,27.30
2019-03-29T01:30:50.331Z,27.23
2019-03-29T01:33:17.591Z,26.97
2019-03-29T01:35:44.851Z,26.37
2019-03-29T01:38:21.745Z,27.47
2019-03-29T01:40:41.599Z,29.23
2019-03-29T01:43:09.358Z,27.50
2019-03-29T01:45:38.065Z,28.93
2019-03-29T01:48:05.512Z,29.33
2019-03-29T01:50:34.938Z,29.10
2019-03-29T01:53:02.847Z,28.17
2019-03-29T01:55:30.439Z,26.50
2019-03-29T01:57:58.945Z,26.77
2019-03-29T02:00:46.293Z,28.03
2019-03-29T02:03:13.667Z,26.87
2019-03-29T02:05:41.075Z,26.30
2019-03-29T02:08:08.502Z,25.13
2019-03-29T02:10:36.140Z,24.13
2019-03-29T02:13:03.596Z,24.50
2019-03-29T02:15:30.928Z,23.83
2019-03-29T02:17:58.295Z,24.30
2019-03-29T02:20:25.563Z,23.27
2019-03-29T02:22:52.894Z,22.47
2019-03-29T02:25:20.464Z,22.93
2019-03-29T02:27:48.500Z,22.80
2019-03-29T02:30:15.942Z,23.07
2019-03-29T02:32:43.302Z,23.97
2019-03-29T02:35:11.660Z,22.10
2019-03-29T02:37:40.359Z,22.63
2019-03-29T02:40:08.159Z,22.80
2019-03-29T02:42:35.794Z,23.90
2019-03-29T02:45:44.471Z,21.17
2019-03-29T02:48:12.510Z,22.27
2019-03-29T02:50:40.452Z,21.77
2019-03-29T02:53:08.148Z,22.40
2019-03-29T02:55:35.828Z,21.83
2019-03-29T02:58:03.483Z,21.60
2019-03-29T03:00:31.183Z,21.23
2019-03-29T03:02:59.045Z,20.87
2019-03-29T03:05:26.812Z,23.90
2019-03-29T03:07:54.663Z,21.30
2019-03-29T03:10:22.331Z,21.63
2019-03-29T03:12:49.985Z,20.83
2019-03-29T03:15:17.885Z,21.90
2019-03-29T03:17:45.511Z,21.97
2019-03-29T03:20:53.732Z,22.37
2019-03-29T03:23:20.993Z,21.13
2019-03-29T03:25:48.440Z,21.03
2019-03-29T03:28:15.778Z,23.13
2019-03-29T03:30:43.023Z,21.53
2019-03-29T03:33:10.276Z,23.67
2019-03-29T03:38:11.323Z,21.90
2019-03-29T03:40:38.653Z,22.97
2019-03-29T03:43:06.058Z,23.27
2019-03-29T03:45:33.298Z,24.03
2019-03-29T03:48:01.055Z,23.60
2019-03-29T03:50:47.942Z,22.20
2019-03-29T03:53:15.257Z,22.23
2019-03-29T03:55:42.626Z,24.33
2019-03-29T04:01:05.761Z,24.77
2019-03-29T04:03:33.780Z,26.70
2019-03-29T04:06:01.154Z,25.33
2019-03-29T04:08:28.762Z,27.10
2019-03-29T04:10:56.236Z,26.47
2019-03-29T04:13:23.590Z,26.13
2019-03-29T04:15:50.946Z,28.23
2019-03-29T04:18:18.647Z,28.13
2019-03-29T04:20:46.077Z,29.23
2019-03-29T04:23:13.421Z,29.77
2019-03-29T04:25:40.775Z,29.07
2019-03-29T04:28:08.029Z,29.60
2019-03-29T04:30:35.352Z,30.70
2019-03-29T04:33:03.077Z,28.77
2019-03-29T04:35:30.448Z,27.80
2019-03-29T04:38:17.972Z,31.17
2019-03-29T04:40:45.788Z,33.37
2019-03-29T04:43:13.666Z,30.67
2019-03-29T04:45:41.834Z,33.67
2019-03-29T04:48:09.476Z,35.03
2019-03-29T04:50:37.441Z,32.93
2019-03-29T04:53:05.183Z,36.17
2019-03-29T04:55:32.810Z,33.80
2019-03-29T04:58:00.439Z,36.53
2019-03-29T05:00:28.226Z,34.60
2019-03-29T05:03:14.837Z,34.13
2019-03-29T05:05:42.635Z,34.17
2019-03-29T05:08:10.192Z,37.57
2019-03-29T05:10:37.461Z,33.57
2019-03-29T05:13:04.795Z,33.13
2019-03-29T05:15:32.196Z,33.43
2019-03-29T05:17:59.688Z,33.80
2019-03-29T05:20:27.159Z,35.47
2019-03-29T05:22:54.433Z,39.50
2019-03-29T05:25:22.074Z,33.43
2019-03-29T05:27:49.401Z,38.93
2019-03-29T05:30:16.673Z,41.20
2019-03-29T05:32:44.222Z,40.10
2019-03-29T05:35:11.942Z,41.97
2019-03-29T05:37:39.211Z,40.03
2019-03-29T05:40:34.673Z,39.03
2019-03-29T05:42:57.033Z,40.87
2019-03-29T05:45:24.287Z,39.83
2019-03-29T05:47:51.711Z,40.53
2019-03-29T05:50:18.961Z,39.13
2019-03-29T05:52:46.797Z,38.57
2019-03-29T05:55:14.189Z,38.37
2019-03-29T05:57:41.891Z,37.07
2019-03-29T06:08:13.381Z,38.13
2019-03-29T06:10:48.982Z,38.77
2019-03-29T06:13:10.028Z,39.87
2019-03-29T06:15:37.349Z,39.93
2019-03-29T06:18:04.763Z,37.83
2019-03-29T06:20:32.024Z,38.17
2019-03-29T06:22:59.413Z,39.00
2019-03-29T06:25:26.681Z,38.33
2019-03-29T06:27:54.213Z,39.20
2019-03-29T06:30:41.083Z,38.03
2019-03-29T06:33:08.453Z,39.77
2019-03-29T06:36:16.875Z,38.10
2019-03-29T06:39:24.921Z,36.37
2019-03-29T06:41:52.674Z,38.00
2019-03-29T06:44:20.429Z,38.50
2019-03-29T06:46:47.796Z,38.30
2019-03-29T06:49:15.260Z,38.27
2019-03-29T06:51:42.641Z,36.83
2019-03-29T06:54:10.601Z,39.30
2019-03-29T06:56:38.270Z,35.57
2019-03-29T06:59:05.742Z,36.63
2019-03-29T07:01:33.103Z,38.67
2019-03-29T07:04:00.807Z,35.93
2019-03-29T07:06:30.510Z,35.80
2019-03-29T07:08:57.317Z,34.63
2019-03-29T07:11:25.045Z,35.33
2019-03-29T07:13:57.894Z,35.63
2019-03-29T07:16:21.851Z,35.83
2019-03-29T07:18:49.218Z,34.00
2019-03-29T07:21:21.877Z,35.07
2019-03-29T07:23:46.289Z,33.63
2019-03-29T07:26:13.850Z,33.93
2019-03-29T07:28:41.114Z,34.50
2019-03-29T07:31:08.369Z,34.67
2019-03-29T07:33:35.956Z,33.37
2019-03-29T07:36:03.602Z,33.80
2019-03-29T07:38:31.118Z,34.33
2019-03-29T07:40:58.452Z,34.77
2019-03-29T07:43:25.717Z,33.90
2019-03-29T07:45:53.342Z,32.43
2019-03-29T07:48:20.782Z,32.23
2019-03-29T07:50:48.137Z,32.07
2019-03-29T07:53:15.525Z,33.33
2019-03-29T07:55:42.947Z,32.67
2019-03-29T07:58:11.090Z,31.70
2019-03-29T08:00:38.371Z,30.97
2019-03-29T08:03:06.238Z,30.37
2019-03-29T08:05:52.854Z,31.13
2019-03-29T08:08:24.691Z,30.50
2019-03-29T08:10:53.746Z,30.77
2019-03-29T08:13:20.629Z,31.53
2019-03-29T08:15:48.357Z,29.87
2019-03-29T08:18:17.062Z,29.97
2019-03-29T08:20:45.736Z,29.17
2019-03-29T08:23:13.735Z,29.60
2019-03-29T08:25:41.381Z,28.80
2019-03-29T08:28:09.088Z,28.70
2019-03-29T08:30:37.531Z,28.17
2019-03-29T08:33:05.208Z,28.43
2019-03-29T08:35:33.312Z,28.80
2019-03-29T08:38:20.333Z,28.03
2019-03-29T08:40:48.066Z,28.27
2019-03-29T08:43:35.146Z,27.47
2019-03-29T08:46:04.983Z,28.00
2019-03-29T08:48:33.155Z,28.87
2019-03-29T08:51:00.642Z,27.40
2019-03-29T08:53:29.256Z,27.63
2019-03-29T08:55:56.648Z,28.37
2019-03-29T08:58:24.687Z,28.10
2019-03-29T09:00:52.234Z,27.63
2019-03-29T09:03:19.497Z,27.70
2019-03-29T09:05:46.998Z,26.63
2019-03-29T09:08:55.020Z,27.00
2019-03-29T09:11:22.394Z,26.37
2019-03-29T09:13:49.782Z,25.13
2019-03-29T09:16:17.437Z,26.13
2019-03-29T09:18:45.096Z,25.30
2019-03-29T09:21:12.744Z,26.00
2019-03-29T09:23:43.794Z,24.70
2019-03-29T09:26:30.549Z,22.17
2019-03-29T09:28:58.136Z,22.77
2019-03-29T09:31:25.504Z,22.50
2019-03-29T09:33:53.220Z,20.77
2019-03-29T09:36:20.901Z,21.87
2019-03-29T09:39:08.033Z,21.53
2019-03-29T09:41:35.631Z,20.43
2019-03-29T09:44:03.099Z,20.27
2019-03-29T09:46:30.442Z,20.23
2019-03-29T09:48:58.587Z,19.40
2019-03-29T09:51:26.360Z,18.70
2019-03-29T09:53:57.687Z,19.47
2019-03-29T09:56:37.641Z,18.87
2019-03-29T09:58:53.384Z,17.93
2019-03-29T10:01:20.994Z,16.30
2019-03-29T10:03:48.985Z,16.17
2019-03-29T10:06:16.248Z,16.17
2019-03-29T10:08:44.100Z,15.43
2019-03-29T10:11:11.823Z,16.23
2019-03-29T10:13:39.280Z,15.20
2019-03-29T10:16:07.003Z,15.10
2019-03-29T10:18:34.286Z,13.50
2019-03-29T10:21:01.813Z,12.70
2019-03-29T10:23:29.319Z,12.73
2019-03-29T10:25:58.627Z,12.63
2019-03-29T10:28:26.371Z,12.77
2019-03-29T10:30:54.240Z,13.00
2019-03-29T10:33:21.965Z,13.10
2019-03-29T10:35:52.659Z,11.63
2019-03-29T10:38:38.648Z,12.10
2019-03-29T10:41:06.644Z,11.10
2019-03-29T10:43:34.437Z,10.93
2019-03-29T10:46:02.206Z,10.97
2019-03-29T10:48:30.099Z,11.63
2019-03-29T10:50:57.959Z,9.97
2019-03-29T10:53:28.537Z,8.30
2019-03-29T10:56:14.652Z,7.67
2019-03-29T10:59:01.387Z,6.97
2019-03-29T11:01:28.649Z,6.90
2019-03-29T11:03:56.053Z,6.97
2019-03-29T11:06:23.514Z,6.77
2019-03-29T11:08:51.081Z,5.17
2019-03-29T11:11:18.607Z,2.80
2019-03-29T11:14:23.261Z,2.50
2019-03-29T11:17:10.079Z,1.60
2019-03-29T11:19:38.087Z,1.77
2019-03-29T11:22:05.346Z,1.60
2019-03-29T11:24:33.001Z,1.50
2019-03-29T11:27:00.338Z,2.30
2019-03-29T11:29:27.713Z,2.60
2019-03-29T11:31:55.412Z,2.50
2019-03-29T11:34:24.451Z,3.23
2019-03-29T11:36:52.902Z,2.80
2019-03-29T11:39:21.868Z,2.70
2019-03-29T11:41:49.537Z,3.07
2019-03-29T11:44:17.114Z,2.87
2019-03-29T11:46:44.676Z,2.93
2019-03-29T11:49:12.546Z,3.43
2019-03-29T11:51:40.895Z,3.60
2019-03-29T11:54:08.179Z,3.70
2019-03-29T11:56:35.864Z,3.73
2019-03-29T11:59:03.248Z,4.57
2019-03-29T12:01:30.627Z,3.93
2019-03-29T12:03:58.032Z,4.30
2019-03-29T12:06:25.400Z,4.30
2019-03-29T12:08:52.708Z,3.97
2019-03-29T12:11:20.378Z,4.13
2019-03-29T12:13:47.740Z,4.77
2019-03-29T12:19:12.927Z,5.47
2019-03-29T12:21:41.161Z,4.90
2019-03-29T12:24:08.821Z,5.07
2019-03-29T12:26:36.626Z,5.43
2019-03-29T12:29:04.347Z,5.03
2019-03-29T12:31:32.782Z,5.70
2019-03-29T12:34:00.815Z,4.70
2019-03-29T12:36:28.487Z,4.87
2019-03-29T12:38:56.631Z,5.10
2019-03-29T12:41:24.411Z,5.10
2019-03-29T12:43:55.830Z,5.20
2019-03-29T12:46:21.345Z,4.77
2019-03-29T12:48:50.437Z,4.53
2019-03-29T12:51:37.664Z,4.93
2019-03-29T12:54:05.333Z,5.10
2019-03-29T12:56:32.709Z,5.93
2019-03-29T12:59:00.083Z,5.83
2019-03-29T13:01:38.507Z,5.33
2019-03-29T13:03:57.646Z,5.40
2019-03-29T13:06:25.311Z,5.67
2019-03-29T13:08:52.807Z,5.37
2019-03-29T13:11:20.249Z,4.60
2019-03-29T13:13:47.839Z,4.77
2019-03-29T13:16:15.191Z,5.20
2019-03-29T13:18:42.571Z,5.53
2019-03-29T13:21:10.255Z,5.97
2019-03-29T13:23:37.672Z,5.50
2019-03-29T13:26:05.053Z,5.90
2019-03-29T13:28:32.334Z,6.23
2019-03-29T13:31:00.051Z,5.70
2019-03-29T13:33:28.258Z,7.30
2019-03-29T13:35:55.927Z,7.90
2019-03-29T13:38:24.902Z,8.03
2019-03-29T13:40:52.273Z,7.80
2019-03-29T13:43:19.539Z,7.60
2019-03-29T13:45:47.283Z,7.30
2019-03-29T13:48:14.552Z,7.70
2019-03-29T13:50:41.828Z,6.50
2019-03-29T13:53:09.650Z,6.90
2019-03-29T13:55:37.029Z,7.30
2019-03-29T13:58:04.317Z,6.40
2019-03-29T14:00:32.110Z,6.60
2019-03-29T14:02:59.387Z,6.60
2019-03-29T14:05:26.844Z,6.97
2019-03-29T14:07:54.617Z,6.80
2019-03-29T14:10:21.907Z,7.10
2019-03-29T14:12:49.466Z,7.97
2019-03-29T14:15:16.906Z,7.13
2019-03-29T14:17:44.459Z,7.57
2019-03-29T14:20:11.993Z,7.97
2019-03-29T14:22:39.320Z,8.33
2019-03-29T14:25:07.068Z,6.93
2019-03-29T14:27:34.865Z,7.83
2019-03-29T14:30:04.635Z,6.63
2019-03-29T14:32:31.818Z,7.00
2019-03-29T14:35:00.428Z,7.13
2019-03-29T14:37:28.574Z,7.00
2019-03-29T14:39:56.255Z,8.03
2019-03-29T14:42:23.637Z,8.07
2019-03-29T14:44:52.682Z,8.27
2019-03-29T14:47:20.793Z,7.57
2019-03-29T14:49:48.127Z,7.93
2019-03-29T14:52:16.122Z,7.20
2019-03-29T14:54:43.675Z,7.63
2019-03-29T14:57:11.156Z,7.37
2019-03-29T14:59:38.919Z,6.83
2019-03-29T15:02:06.300Z,7.13
2019-03-29T15:04:53.068Z,7.27
2019-03-29T15:07:20.335Z,6.50
2019-03-29T15:09:48.233Z,6.67
2019-03-29T15:12:15.585Z,6.93
2019-03-29T15:14:42.849Z,6.60
2019-03-29T15:17:10.229Z,5.80
2019-03-29T15:19:37.943Z,6.27
2019-03-29T15:22:05.325Z,6.00
2019-03-29T15:24:32.905Z,6.20
2019-03-29T15:27:00.310Z,6.10
2019-03-29T15:29:27.651Z,6.30
2019-03-29T15:31:55.046Z,6.03
2019-03-29T15:34:22.451Z,6.57
2019-03-29T15:36:50.478Z,6.60
2019-03-29T15:39:18.064Z,6.40
2019-03-29T15:41:45.899Z,6.17
2019-03-29T15:44:13.410Z,5.77
2019-03-29T15:46:40.807Z,6.43
2019-03-29T15:49:08.196Z,7.00
2019-03-29T15:51:35.871Z,7.03
2019-03-29T15:54:03.133Z,6.47
2019-03-29T15:56:30.811Z,7.37
2019-03-29T15:58:58.091Z,7.90
2019-03-29T16:01:25.360Z,7.40
2019-03-29T16:03:52.774Z,7.87
2019-03-29T16:06:20.465Z,8.10
2019-03-29T16:08:48.068Z,7.47
2019-03-29T16:11:18.598Z,7.80
2019-03-29T16:13:44.995Z,7.60
2019-03-29T16:16:20.343Z,7.40
2019-03-29T16:18:47.996Z,7.67
2019-03-29T16:21:15.666Z,8.07
2019-03-29T16:23:43.422Z,7.47
2019-03-29T16:26:11.238Z,7.60
2019-03-29T16:28:38.882Z,8.20
2019-03-29T16:31:06.935Z,7.90
2019-03-29T16:33:34.989Z,7.73
2019-03-29T16:36:02.755Z,8.20
2019-03-29T16:38:32.590Z,8.20
2019-03-29T16:41:00.899Z,8.33
2019-03-29T16:43:29.391Z,8.33
2019-03-29T16:45:57.326Z,8.37
2019-03-29T16:48:24.970Z,8.57
2019-03-29T16:50:52.858Z,9.17
2019-03-29T16:53:20.696Z,8.57
2019-03-29T16:55:49.063Z,9.03
2019-03-29T16:58:16.870Z,8.17
2019-03-29T17:00:44.652Z,8.40
2019-03-29T17:03:12.316Z,9.43
2019-03-29T17:05:59.628Z,8.60
2019-03-29T17:08:27.564Z,8.13
2019-03-29T17:10:56.010Z,8.60
2019-03-29T17:13:24.360Z,9.33
2019-03-29T17:16:01.768Z,7.57
2019-03-29T17:18:42.781Z,7.97
2019-03-29T17:21:10.673Z,7.13
2019-03-29T17:23:38.611Z,7.70
2019-03-29T17:26:18.520Z,6.83
2019-03-29T17:28:46.327Z,7.10
2019-03-29T17:34:03.427Z,7.50
2019-03-29T17:36:32.147Z,7.90
2019-03-29T17:39:00.318Z,7.50
2019-03-29T17:41:29.612Z,6.60
2019-03-29T17:44:16.422Z,7.27
2019-03-29T17:47:03.750Z,7.20
2019-03-29T17:49:51.262Z,7.37
2019-03-29T17:52:19.865Z,7.47
2019-03-29T17:54:48.022Z,7.37
2019-03-29T17:57:15.989Z,6.03
2019-03-29T17:59:43.779Z,6.90
2019-03-29T18:02:11.757Z,6.20
2019-03-29T18:04:39.418Z,6.03
2019-03-29T18:07:07.177Z,6.13
2019-03-29T18:09:35.338Z,6.87
2019-03-29T18:12:04.056Z,6.37
2019-03-29T18:14:31.847Z,6.83
2019-03-29T18:16:59.479Z,8.40
2019-03-29T18:19:28.400Z,7.87
2019-03-29T18:21:56.084Z,8.13
2019-03-29T18:24:24.128Z,7.67
2019-03-29T18:26:52.113Z,8.57
2019-03-29T18:29:20.416Z,9.33
2019-03-29T18:31:48.071Z,9.63
2019-03-29T18:34:16.325Z,9.90
2019-03-29T18:37:24.956Z,9.10
2019-03-29T18:39:54.976Z,9.50
2019-03-29T18:42:22.216Z,9.30
2019-03-29T18:44:49.711Z,8.77
2019-03-29T18:47:17.332Z,9.70
2019-03-29T18:49:44.580Z,9.97
2019-03-29T18:52:12.246Z,8.67
2019-03-29T18:54:39.799Z,8.67
2019-03-29T18:57:07.149Z,8.87
2019-03-29T18:59:34.750Z,7.87
2019-03-29T19:02:02.015Z,7.60
2019-03-29T19:04:29.653Z,11.80
2019-03-29T19:06:57.035Z,12.03
2019-03-29T19:09:24.460Z,13.30
2019-03-29T19:11:52.125Z,15.83
2019-03-29T19:14:19.611Z,17.13
2019-03-29T19:16:58.247Z,15.63
2019-03-29T19:19:16.964Z,21.23
2019-03-29T19:21:44.455Z,14.77
2019-03-29T19:24:12.143Z,17.00
2019-03-29T19:27:01.003Z,16.43
2019-03-29T19:29:28.654Z,17.93
2019-03-29T19:31:56.356Z,18.77
2019-03-29T19:34:24.079Z,18.03
2019-03-29T19:36:51.470Z,15.13
2019-03-29T19:39:18.806Z,16.00
2019-03-29T19:41:46.233Z,17.07
2019-03-29T19:44:13.974Z,16.80
2019-03-29T19:46:43.020Z,17.47
2019-03-29T19:49:30.253Z,18.77
2019-03-29T19:51:59.341Z,19.77
2019-03-29T19:54:29.490Z,21.23
2019-03-29T19:56:59.138Z,19.97
2019-03-29T19:59:27.120Z,22.13
2019-03-29T20:01:56.215Z,20.50
2019-03-29T20:04:24.973Z,21.97
2019-03-29T20:06:53.138Z,22.50
2019-03-29T20:09:21.280Z,22.87
2019-03-29T20:11:48.960Z,23.70
2019-03-29T20:14:20.922Z,22.33
2019-03-29T20:16:48.649Z,22.10
2019-03-29T20:19:16.333Z,21.10
2019-03-29T20:21:44.160Z,20.80
2019-03-29T20:24:12.407Z,18.40
2019-03-29T20:26:40.882Z,19.53
2019-03-29T20:29:08.525Z,17.00
2019-03-29T20:31:36.460Z,17.87
2019-03-29T20:34:04.183Z,17.00
2019-03-29T20:36:51.534Z,18.40
2019-03-29T20:39:20.424Z,18.50
2019-03-29T20:41:48.390Z,21.37
2019-03-29T20:44:15.759Z,24.17
2019-03-29T20:46:43.686Z,26.30
2019-03-29T20:49:11.270Z,28.43
2019-03-29T20:51:39.367Z,28.23
2019-03-29T20:54:07.517Z,25.50
2019-03-29T20:56:36.583Z,26.57
2019-03-29T20:59:04.377Z,26.87
2019-03-29T21:01:31.749Z,25.93
2019-03-29T21:03:59.011Z,24.27
2019-03-29T21:06:26.437Z,23.13
2019-03-29T21:09:34.635Z,21.57
2019-03-29T21:12:03.420Z,19.97
2019-03-29T21:14:31.045Z,18.50
2019-03-29T21:16:58.956Z,18.80
2019-03-29T21:19:27.200Z,20.83
2019-03-29T21:21:54.858Z,20.43
2019-03-29T21:24:24.065Z,18.10
2019-03-29T21:26:52.833Z,16.30
2019-03-29T21:29:30.698Z,15.93
2019-03-29T21:31:58.339Z,19.27
2019-03-29T21:34:26.361Z,16.50
2019-03-29T21:36:54.044Z,18.60
2019-03-29T21:39:21.662Z,16.00
2019-03-29T21:41:49.620Z,18.77
2019-03-29T21:44:18.279Z,18.67
2019-03-29T21:46:46.501Z,17.67
2019-03-29T21:49:14.347Z,17.27
2019-03-29T21:51:42.050Z,17.03
2019-03-29T21:54:09.903Z,17.77
2019-03-29T21:56:37.523Z,16.27
2019-03-29T21:59:05.420Z,17.63
2019-03-29T22:01:33.310Z,15.80
2019-03-29T22:04:00.995Z,15.43
2019-03-29T22:06:28.697Z,14.73
2019-03-29T22:08:56.730Z,14.27
2019-03-29T22:11:24.385Z,12.83
2019-03-29T22:13:53.183Z,12.50
2019-03-29T22:16:21.260Z,13.03
2019-03-29T22:18:49.212Z,12.40
2019-03-29T22:21:16.999Z,13.30
2019-03-29T22:23:45.061Z,12.43
2019-03-29T22:26:13.017Z,12.70
2019-03-29T22:28:40.751Z,11.27
2019-03-29T22:31:08.797Z,13.50
2019-03-29T22:33:36.461Z,14.57
2019-03-29T22:36:04.684Z,14.53
2019-03-29T22:38:51.196Z,13.87
2019-03-29T22:43:52.231Z,17.73
2019-03-29T22:46:19.567Z,26.50
2019-03-29T22:48:52.478Z,27.33
2019-03-29T22:51:16.076Z,24.83
2019-03-29T22:53:43.334Z,18.23
2019-03-29T22:56:10.768Z,19.17
2019-03-29T22:58:38.237Z,16.80
2019-03-29T23:01:05.999Z,16.43
2019-03-29T23:03:33.516Z,17.87
2019-03-29T23:06:01.014Z,15.43
2019-03-29T23:08:28.383Z,15.70
2019-03-29T23:10:56.131Z,14.33
2019-03-29T23:13:24.012Z,14.90
2019-03-29T23:15:51.598Z,14.93
2019-03-29T23:18:19.208Z,15.00
2019-03-29T23:20:46.492Z,14.07
2019-03-29T23:23:14.136Z,12.47
2019-03-29T23:25:41.468Z,12.10
2019-03-29T23:28:08.726Z,12.93
2019-03-29T23:30:36.091Z,12.43
2019-03-29T23:33:03.510Z,11.07
2019-03-29T23:35:30.877Z,12.03
2019-03-29T23:37:58.482Z,12.10
2019-03-29T23:40:26.254Z,11.67
2019-03-29T23:42:53.595Z,10.73
2019-03-29T23:45:20.953Z,10.93
2019-03-29T23:47:48.291Z,10.90
2019-03-29T23:50:15.583Z,10.10
2019-03-29T23:52:43.104Z,11.03
2019-03-29T23:55:10.524Z,11.13
2019-03-29T23:57:38.057Z,11.27
